• Join FlightAware (Why Join?)
  • Login
  • US Flag 
02:00PM EDT


 

Airport Tracker/Info


-or-


 

Live Flight TrackerFlight Track Log ✈ N749SS ✈ 02-Nov-2013 ✈ KHPN - KAPF

Flight Track Log - Related Links

Times and Time Zones

All times are in EDT time to prevent confusion due to time zone crossing. See the N749SS flight status page for this flight to view local times or setup timezone preferences in your user account.

Time Position Orientation Groundspeed Altitude Reporting Facility
EDT Latitude Longitude Course Direction KTS MPH feet Rate Location/Type
09:30AM 41.1000 -73.7333 270° West 211 243 1,700  Level New York TRACON
09:31AM 41.1000 -73.8000 270° West 225 259 3,100 2,400 Climbing New York TRACON
09:32AM 41.0667 -73.8833 242° Southwest 206 237 6,600 1,800 Climbing New York TRACON
09:33AM 41.0167 -73.9500 225° Southwest 260 299 7,000 1,080 Climbing New York TRACON
09:34AM 40.9500 -73.9833 201° Southwest 261 300 8,800 2,280 Climbing New York TRACON
09:35AM 40.8833 -74.0167 201° Southwest 273 314 11,700 1,680 Climbing New York TRACON
09:36AM 40.8167 -74.0667 210° Southwest 346 398 12,000 120 Climbing New York TRACON
09:37AM 40.7167 -74.1000 194° South 357 411 12,000  Level New York TRACON
09:38AM 40.6167 -74.1333 194° South 359 413 12,000 1,680 Level New York TRACON
09:39AM 40.4358 -74.1658 188° South 362 417 16,900 1,740 Climbing New York Center
09:40AM 40.3456 -74.1831 188° South 369 425 17,000  Climbing New York Center
09:41AM 40.2367 -74.2078 190° South 368 423 17,000  Level New York Center
09:42AM 40.1464 -74.2250 188° South 368 423 17,000 1,080 Level New York Center
09:43AM 40.0331 -74.2492 189° South 368 423 19,200 2,040 Climbing New York Center
09:44AM 39.9503 -74.3044 207° Southwest 357 411 21,100 1,800 Climbing New York Center
09:46AM 39.8472 -74.4025 216° Southwest 315 362 23,800 1,800 Climbing Washington Center
09:47AM 39.7792 -74.4792 221° Southwest 325 374 25,800 1,920 Climbing Washington Center
09:48AM 39.7133 -74.5664 226° Southwest 330 380 27,800 1,980 Climbing Washington Center
09:49AM 39.6494 -74.6536 226° Southwest 335 386 29,800 1,980 Climbing Washington Center
09:50AM 39.5875 -74.7381 226° Southwest 330 380 31,700 1,980 Climbing Washington Center
09:51AM 39.5172 -74.8250 224° Southwest 330 380 33,700 1,920 Climbing Washington Center
09:52AM 39.4553 -74.9089 226° Southwest 325 374 35,600 1,860 Climbing Washington Center
09:53AM 39.3953 -74.9872 225° Southwest 325 374 37,500 1,380 Climbing Washington Center
09:54AM 39.3372 -75.0656 226° Southwest 320 368 38,500 1,020 Climbing Washington Center
09:55AM 39.2647 -75.1306 215° Southwest 320 368 39,600 720 Climbing Washington Center
09:56AM 39.1750 -75.1658 197° South 320 368 40,000 180 Climbing Washington Center
09:57AM 39.0794 -75.2092 199° South 345 397 40,000  Level Washington Center
09:58AM 38.9753 -75.2525 198° South 369 425 40,000  Level Washington Center
09:59AM 38.8692 -75.2956 198° South 392 451 40,000  Level Washington Center
10:00AM 38.7608 -75.3414 198° South 405 466 40,000  Level Washington Center
10:01AM 38.6544 -75.3844 198° South 405 466 40,000  Level Washington Center
10:02AM 38.5461 -75.4272 197° South 405 466 40,000  Level Washington Center
10:03AM 38.4400 -75.4750 199° South 405 466 40,000  Level Washington Center
10:04AM 38.3358 -75.5150 197° South 405 466 40,000  Level Washington Center
10:05AM 38.2378 -75.5758 206° Southwest 399 459 40,000  Level Washington Center
10:06AM 38.1419 -75.6367 207° Southwest 399 459 40,000  Level Washington Center
10:07AM 38.0625 -75.6867 206° Southwest 394 453 40,000  Level Washington Center
10:08AM 37.9478 -75.7656 208° Southwest 394 453 40,000  Level Washington Center
10:09AM 37.8706 -75.8153 207° Southwest 394 453 40,000  Level Washington Center
10:10AM 37.7536 -75.8858 206° Southwest 394 453 40,000  Level Washington Center
10:11AM 37.6533 -75.9458 205° Southwest 389 448 40,000  Level Washington Center
10:12AM 37.5572 -76.0031 205° Southwest 389 448 40,000  Level Washington Center
10:13AM 37.4589 -76.0653 207° Southwest 389 448 40,000  Level Washington Center
10:14AM 37.3628 -76.1250 206° Southwest 389 448 40,000  Level Washington Center
10:15AM 37.2583 -76.1789 202° Southwest 389 448 40,000  Level Washington Center
10:16AM 37.1578 -76.2408 206° Southwest 400 460 40,000  Level Washington Center
10:17AM 37.0572 -76.2997 205° Southwest 405 466 40,000  Level Washington Center
10:18AM 36.9589 -76.3586 206° Southwest 400 460 40,000  Level Washington Center
10:19AM 36.8606 -76.4200 207° Southwest 400 460 40,000  Level Washington Center
10:20AM 36.7619 -76.4811 206° Southwest 400 460 40,000  Level Washington Center
10:21AM 36.6739 -76.5397 208° Southwest 400 460 40,000  Level Washington Center
10:22AM 36.5753 -76.5981 205° Southwest 400 460 40,000  Level Washington Center
10:23AM 36.4769 -76.6536 204° Southwest 400 460 40,000  Level Washington Center
10:24AM 36.3761 -76.7142 206° Southwest 400 460 40,000  Level Washington Center
10:25AM 36.2775 -76.7694 204° Southwest 400 460 40,000  Level Washington Center
10:26AM 36.1747 -76.8297 205° Southwest 405 466 40,000  Level Washington Center
10:27AM 36.0739 -76.8872 205° Southwest 405 466 40,000  Level Washington Center
10:28AM 35.9731 -76.9472 206° Southwest 405 466 40,000  Level Washington Center
10:29AM 35.8722 -77.0044 205° Southwest 405 466 40,000  Level Washington Center
10:30AM 35.7633 -77.0433 196° South 405 466 40,000  Level Washington Center
10:31AM 35.6544 -77.0850 197° South 405 466 40,000  Level Washington Center
10:32AM 35.5517 -77.1264 198° South 405 466 40,000  Level Washington Center
10:33AM 35.4447 -77.1650 196° South 405 466 40,000  Level Washington Center
10:34AM 35.3356 -77.2089 198° South 405 466 40,000  Level Washington Center
10:35AM 35.2244 -77.2497 197° South 405 466 40,000  Level Washington Center
10:36AM 35.1153 -77.2908 197° South 405 466 40,000  Level Washington Center
10:37AM 35.0061 -77.3342 198° South 405 466 40,000  Level Washington Center
10:38AM 34.8992 -77.3747 197° South 405 466 40,000  Level Washington Center
10:39AM 34.7942 -77.4156 198° South 405 466 40,000  Level Washington Center
10:40AM 34.6850 -77.4586 198° South 405 466 40,000  Level Washington Center
10:41AM 34.5758 -77.5014 198° South 405 466 40,000  Level Washington Center
10:42AM 34.4669 -77.5417 197° South 405 466 40,000  Level Washington Center
10:43AM 34.3578 -77.5819 197° South 405 466 40,000  Level Washington Center
10:44AM 34.2506 -77.6222 197° South 405 466 40,000  Level Washington Center
10:45AM 34.1394 -77.6619 196° South 405 466 40,000  Level Washington Center
10:46AM 33.9767 -77.7239 198° South 418 481 40,000  Level Jacksonville Center
10:47AM 33.8697 -77.7628 197° South 418 481 40,000  Level Jacksonville Center
10:48AM 33.7608 -77.8017 197° South 412 474 40,000  Level Jacksonville Center
10:49AM 33.6500 -77.8456 198° South 417 480 40,000  Level Jacksonville Center
10:50AM 33.5431 -77.8839 197° South 412 474 40,000  Level Jacksonville Center
10:51AM 33.4319 -77.9250 197° South 412 474 40,000  Level Jacksonville Center
10:52AM 33.3228 -77.9636 196° South 412 474 40,000  Level Jacksonville Center
10:53AM 33.2117 -78.0044 197° South 412 474 40,000  Level Jacksonville Center
10:54AM 33.1047 -78.0450 198° South 412 474 40,000  Level Jacksonville Center
10:55AM 32.9833 -78.0861 196° South 412 474 40,000  Level Jacksonville Center
10:56AM 32.8783 -78.1289 199° South 412 474 40,000  Level Jacksonville Center
10:57AM 32.7692 -78.1667 196° South 412 474 40,000  Level Jacksonville Center
10:58AM 32.6600 -78.2044 196° South 412 474 40,000  Level Jacksonville Center
10:59AM 32.5531 -78.2444 197° South 412 474 40,000  Level Jacksonville Center
11:00AM 32.4500 -78.2794 196° South 402 463 40,000 -60 Level Jacksonville Center
11:01AM 32.3489 -78.3164 197° South 391 450 39,900  Descending Jacksonville Center
11:02AM 32.2439 -78.3561 198° South 391 450 40,000  Climbing Jacksonville Center
11:03AM 32.1408 -78.3931 197° South 391 450 40,000  Level Jacksonville Center
11:04AM 32.0378 -78.4300 197° South 391 450 40,000  Level Jacksonville Center
11:05AM 31.9369 -78.4667 197° South 391 450 40,000  Level Jacksonville Center
11:06AM 31.8317 -78.5036 197° South 396 456 40,000  Level Jacksonville Center
11:07AM 31.7286 -78.5403 197° South 396 456 40,000  Level Jacksonville Center
11:08AM 31.6275 -78.5767 197° South 396 456 40,000  Level Jacksonville Center
11:09AM 31.5264 -78.6131 197° South 396 456 40,000  Level Jacksonville Center
11:10AM 31.4233 -78.6469 196° South 396 456 40,000  Level Jacksonville Center
11:11AM 31.3200 -78.6856 198° South 396 456 40,000  Level Jacksonville Center
11:12AM 31.2150 -78.7244 198° South 396 456 40,000  Level Jacksonville Center
11:13AM 31.1117 -78.7581 196° South 390 449 40,000  Level Jacksonville Center
11:14AM 31.0022 -78.7944 196° South 396 456 40,000  Level Jacksonville Center
11:15AM 30.8947 -78.8306 196° South 396 456 40,000  Level Jacksonville Center
11:16AM 30.7917 -78.8686 198° South 401 461 40,000  Level Jacksonville Center
11:17AM 30.6822 -78.9047 196° South 401 461 40,000  Level Jacksonville Center
11:18AM 30.5728 -78.9431 197° South 401 461 40,000  Level Jacksonville Center
11:19AM 30.4653 -78.9789 196° South 401 461 40,000  Level Jacksonville Center
11:20AM 30.4122 -78.9983 198° South 402 463 40,000  Level Miami Center
11:21AM 30.3072 -79.0444 201° Southwest 402 463 40,000  Level Miami Center
11:22AM 30.2044 -79.0878 200° South 402 463 40,000  Level Miami Center
11:23AM 30.0975 -79.1336 200° South 407 468 40,000  Level Miami Center
11:24AM 29.9989 -79.1794 202° Southwest 407 468 40,000  Level Miami Center
11:25AM 29.9103 -79.2350 209° Southwest 400 460 40,000  Level Miami Center
11:26AM 29.8033 -79.2756 198° South 400 460 40,000  Level Miami Center
11:27AM 29.7025 -79.3211 201° Southwest 400 460 40,000  Level Miami Center
11:28AM 29.6014 -79.3714 203° Southwest 395 455 40,000  Level Miami Center
11:29AM 29.4983 -79.4214 203° Southwest 400 460 40,000  Level Miami Center
11:30AM 29.3992 -79.4833 209° Southwest 400 460 40,000  Level Miami Center
11:31AM 29.3000 -79.5453 209° Southwest 406 467 40,000 -60 Level Miami Center
11:32AM 29.1989 -79.6044 207° Southwest 406 467 39,900 -600 Descending Miami Center
11:33AM 29.0975 -79.6614 206° Southwest 406 467 38,900 -960 Descending Miami Center
11:34AM 28.9942 -79.7253 208° Southwest 417 480 38,000 -960 Descending Miami Center
11:35AM 28.8886 -79.7842 206° Southwest 422 486 37,000 -1,020 Descending Miami Center
11:36AM 28.7831 -79.8453 207° Southwest 422 486 36,000 -960 Descending Miami Center
11:37AM 28.6731 -79.9108 208° Southwest 435 501 35,100 -1,380 Descending Miami Center
11:38AM 28.5547 -79.9833 208° Southwest 441 507 33,300 -1,620 Descending Miami Center
11:39AM 28.4447 -80.0464 207° Southwest 441 507 31,900 -1,440 Descending Miami Center
11:40AM 28.3347 -80.1117 208° Southwest 441 507 30,500 -1,500 Descending Miami Center
11:41AM 28.2475 -80.1844 216° Southwest 447 514 29,000 -1,500 Descending Miami Center
11:42AM 28.1575 -80.2808 223° Southwest 442 509 27,600 -1,500 Descending Miami Center
11:43AM 28.0547 -80.3906 223° Southwest 456 525 26,000 -1,560 Descending Miami Center
11:44AM 27.9647 -80.4864 223° Southwest 456 525 24,500 -1,500 Descending Miami Center
11:45AM 27.8706 -80.5797 221° Southwest 456 525 23,000 -1,500 Descending Miami Center
11:46AM 27.7831 -80.6472 214° Southwest 445 512 21,600 -1,500 Descending Miami Center
11:47AM 27.6872 -80.7214 214° Southwest 429 494 20,100 -1,500 Descending Miami Center
11:48AM 27.5828 -80.8022 214° Southwest 429 494 18,600 -1,500 Descending Miami Center
11:49AM 27.4975 -80.8719 216° Southwest 424 488 17,100 -1,500 Descending Miami Center
11:50AM 27.3950 -80.9503 214° Southwest 418 481 15,600 -1,500 Descending Miami Center
11:51AM 27.3053 -81.0219 215° Southwest 413 475 14,100 -840 Descending Miami Center
11:52AM 27.2264 -81.0819 214° Southwest 402 463 14,000 -900 Descending Miami Center
11:53AM 27.1281 -81.1578 214° Southwest 392 451 12,400 -1,800 Descending Miami Center
11:54AM 27.0425 -81.2244 215° Southwest 386 444 10,500 -1,200 Descending Miami Center
11:55AM 26.9633 -81.2869 215° Southwest 386 444 10,000 -300 Descending Miami Center
11:56AM 26.8778 -81.3533 215° Southwest 386 444 10,000  Level Miami Center
11:57AM 26.7883 -81.4106 210° Southwest 386 444 10,000 -60 Level Miami Center
11:58AM 26.6844 -81.3994 175° South 359 413 9,900 -540 Descending Miami Center
11:59AM 26.6028 -81.4008 181° South 327 376 9,000 -960 Descending Miami Center
12:00PM 26.5311 -81.4236 196° South 286 329 8,000 -1,020 Descending Miami Center
12:01PM 26.4708 -81.4817 221° Southwest 275 316 7,000 -1,020 Descending Miami Center
12:02PM 26.4150 -81.5328 219° Southwest 275 316 6,000 -1,140 Descending Miami Center
12:03PM 26.3525 -81.5906 220° Southwest 269 310 4,800 -1,200 Descending Miami Center
12:05PM 26.2280 -81.7059 246° West  Level Estimated
12:12PM 26.1500 -81.7667 246° West  Level FlightAware Approximate
12:13PM 26.1524 -81.7756 246° West  Level Estimated
12:14PM 26.1524 -81.7756 246° West  Level Estimated
12:15PM 26.1524 -81.7756 246° West  Level Estimated
12:16PM 26.1524 -81.7756 246° West  Level Estimated